Time;durP1;ratioP1;P1;durP2;ratioP2;P2;SDS_P1;SDS_P2;PMS_P1;PMS_P2;Temp;Humidity;BMP_temperature;BMP_pressure;BME280_temperature;BME280_humidity;BME280_pressure;Samples;Min_cycle;Max_cycle;Signal;HPM_P1;HPM_P2
2020/12/13 00:04:47;;;;;;;8.77;7.63;;;6.00;99.90;;;;;;6204827;23;20425;-85
2020/12/13 00:07:47;;;;;;;9.33;8.43;;;6.00;99.90;;;;;;6178886;23;20394;-87
2020/12/13 00:10:47;;;;;;;10.63;7.13;;;6.00;99.90;;;;;;6178602;23;20396;-86
2020/12/13 00:16:51;;;;;;;7.57;6.73;;;6.00;99.90;;;;;;6205650;23;20443;-86
2020/12/13 00:19:45;;;;;;;8.50;7.70;;;6.00;99.90;;;;;;6179016;23;20396;-86
2020/12/13 00:22:35;;;;;;;8.10;7.30;;;6.00;99.90;;;;;;6169595;23;20400;-85
2020/12/13 00:25:01;;;;;;;8.20;7.30;;;6.10;99.90;;;;;;6177845;23;20984;-85
2020/12/13 00:27:27;;;;;;;11.57;7.90;;;6.10;99.90;;;;;;6177000;23;20414;-85
2020/12/13 00:29:54;;;;;;;7.57;6.80;;;6.10;99.90;;;;;;6205009;23;20369;-85
2020/12/13 00:32:20;;;;;;;8.30;6.20;;;6.10;99.90;;;;;;6177799;23;20156;-86
2020/12/13 00:34:53;;;;;;;7.23;6.53;;;6.10;99.90;;;;;;6178709;23;20482;-85
2020/12/13 00:37:18;;;;;;;8.00;6.57;;;6.10;99.90;;;;;;6177450;23;20532;-85
2020/12/13 00:39:44;;;;;;;7.07;6.37;;;6.20;99.90;;;;;;6178180;23;20399;-85
2020/12/13 00:42:10;;;;;;;7.47;6.70;;;6.20;99.90;;;;;;6178737;23;20627;-85
2020/12/13 00:44:35;;;;;;;7.80;7.00;;;6.20;99.90;;;;;;6178587;23;20602;-85
2020/12/13 00:47:01;;;;;;;7.17;6.37;;;6.20;99.90;;;;;;6177720;23;20211;-85
2020/12/13 00:49:27;;;;;;;6.17;5.57;;;6.20;99.90;;;;;;6178382;23;20489;-86
2020/12/13 00:51:53;;;;;;;7.63;5.87;;;6.10;99.90;;;;;;6204656;23;20650;-86
2020/12/13 00:54:30;;;;;;;7.07;6.37;;;6.20;99.90;;;;;;6197898;23;20227;-85
2020/12/13 00:56:56;;;;;;;6.80;6.20;;;6.20;99.90;;;;;;6202560;23;20807;-85
2020/12/13 00:59:32;;;;;;;5.60;5.10;;;6.20;99.90;;;;;;6202392;23;20449;-84
2020/12/13 01:05:14;;;;;;;6.40;5.80;;;6.30;99.90;;;;;;6195105;23;20768;-85
2020/12/13 01:07:47;;;;;;;6.57;5.90;;;6.20;99.90;;;;;;6198405;23;20460;-85
2020/12/13 01:10:12;;;;;;;6.47;5.50;;;6.30;99.90;;;;;;6198376;23;20791;-85
2020/12/13 01:12:41;;;;;;;6.17;5.60;;;6.30;99.90;;;;;;6201935;23;20437;-85
2020/12/13 01:15:07;;;;;;;6.23;5.70;;;6.30;99.90;;;;;;6203406;23;20162;-85
2020/12/13 01:17:33;;;;;;;6.43;5.70;;;6.20;99.90;;;;;;6177999;23;20767;-84
2020/12/13 01:19:59;;;;;;;6.77;6.13;;;6.20;99.90;;;;;;6202303;23;20390;-84
2020/12/13 01:22:25;;;;;;;6.20;5.60;;;6.20;99.90;;;;;;6203001;23;20468;-84
2020/12/13 01:24:51;;;;;;;6.10;5.60;;;6.20;99.90;;;;;;6202348;23;20290;-83
2020/12/13 01:27:18;;;;;;;6.73;5.67;;;6.20;99.90;;;;;;6203246;23;20778;-84
2020/12/13 01:29:50;;;;;;;5.30;4.80;;;6.20;99.90;;;;;;6202860;23;20426;-85
2020/12/13 01:32:41;;;;;;;6.40;5.80;;;6.20;99.90;;;;;;6202296;23;20406;-85
2020/12/13 01:35:09;;;;;;;6.60;6.00;;;6.20;99.90;;;;;;6200676;23;20389;-85
2020/12/13 01:37:35;;;;;;;7.20;6.60;;;6.20;99.90;;;;;;6202868;23;20448;-85
2020/12/13 01:40:05;;;;;;;7.33;6.63;;;6.20;99.90;;;;;;6202399;23;20427;-85
2020/12/13 01:42:43;;;;;;;7.33;6.60;;;6.10;99.90;;;;;;6203365;23;20412;-85
2020/12/13 01:45:13;;;;;;;7.50;6.80;;;6.00;99.90;;;;;;6202415;23;20400;-84
2020/12/13 01:47:46;;;;;;;9.30;7.17;;;6.00;99.90;;;;;;6197875;23;20393;-85
2020/12/13 01:50:29;;;;;;;7.90;7.20;;;5.90;99.90;;;;;;6204321;23;20433;-85
2020/12/13 01:53:24;;;;;;;7.03;6.23;;;6.00;99.90;;;;;;6200340;23;20418;-85
2020/12/13 01:55:50;;;;;;;7.60;6.90;;;6.00;99.90;;;;;;6172354;23;20454;-85
2020/12/13 01:58:27;;;;;;;7.07;6.20;;;6.00;99.90;;;;;;6177561;23;20417;-85
2020/12/13 02:00:55;;;;;;;6.80;6.20;;;6.00;99.90;;;;;;6172805;23;20390;-85
2020/12/13 02:04:02;;;;;;;7.70;6.00;;;6.00;99.90;;;;;;6176827;23;20407;-85
2020/12/13 02:06:29;;;;;;;8.10;6.10;;;6.10;99.90;;;;;;6184519;23;20393;-85
2020/12/13 02:08:55;;;;;;;7.43;6.60;;;6.10;99.90;;;;;;6176694;23;20385;-85
2020/12/13 02:11:21;;;;;;;7.20;6.50;;;6.00;99.90;;;;;;6176871;23;20389;-85
2020/12/13 02:13:48;;;;;;;6.70;6.10;;;6.00;99.90;;;;;;6177616;23;20389;-85
2020/12/13 02:16:15;;;;;;;6.93;6.00;;;6.00;99.90;;;;;;6176250;23;21016;-84
2020/12/13 02:18:44;;;;;;;6.20;5.70;;;6.00;99.90;;;;;;6177336;23;20745;-85
2020/12/13 02:21:12;;;;;;;6.20;5.70;;;6.10;99.90;;;;;;6192709;23;20671;-85
2020/12/13 02:23:40;;;;;;;6.30;5.73;;;6.10;99.90;;;;;;6174847;23;20882;-85
2020/12/13 02:26:13;;;;;;;6.17;5.37;;;6.10;99.90;;;;;;6176514;23;20397;-85
2020/12/13 02:28:45;;;;;;;6.67;6.07;;;6.20;99.90;;;;;;6176690;23;20394;-85
2020/12/13 02:31:15;;;;;;;7.33;6.63;;;6.20;99.90;;;;;;6164618;23;20404;-84
2020/12/13 02:33:43;;;;;;;6.70;6.03;;;6.20;99.90;;;;;;6178145;23;20405;-85
2020/12/13 02:36:15;;;;;;;6.87;6.20;;;6.10;99.90;;;;;;6176134;23;20783;-85
2020/12/13 02:38:41;;;;;;;7.10;6.50;;;6.10;99.90;;;;;;6152361;23;20405;-84
2020/12/13 02:41:29;;;;;;;7.37;6.57;;;6.20;99.90;;;;;;6177054;23;20407;-84
2020/12/13 02:43:56;;;;;;;6.97;6.27;;;6.20;99.90;;;;;;6197989;23;20161;-85
2020/12/13 02:46:23;;;;;;;6.60;6.00;;;6.20;99.90;;;;;;6177259;23;20710;-84
2020/12/13 02:48:49;;;;;;;10.00;6.23;;;6.10;99.90;;;;;;6206628;23;20153;-85
2020/12/13 02:51:14;;;;;;;6.77;6.13;;;6.10;99.90;;;;;;6177860;23;20751;-85
2020/12/13 02:53:40;;;;;;;7.27;6.57;;;6.10;99.90;;;;;;6179656;23;20158;-85
2020/12/13 02:56:12;;;;;;;7.07;6.47;;;6.10;99.90;;;;;;6178767;23;20206;-84
2020/12/13 02:59:00;;;;;;;7.23;6.33;;;6.10;99.90;;;;;;6179675;23;20163;-85
2020/12/13 03:01:29;;;;;;;6.70;5.97;;;6.10;99.90;;;;;;6178987;23;20861;-85
2020/12/13 03:03:55;;;;;;;7.40;6.57;;;6.10;99.90;;;;;;6178391;23;20392;-85
2020/12/13 03:06:20;;;;;;;7.47;6.77;;;6.10;99.90;;;;;;6178307;23;20423;-85
2020/12/13 03:08:46;;;;;;;6.67;5.97;;;6.10;99.90;;;;;;6178346;23;20157;-84
2020/12/13 03:11:12;;;;;;;7.27;6.50;;;6.10;99.90;;;;;;6179543;23;20188;-84
2020/12/13 03:13:37;;;;;;;7.00;6.10;;;6.10;99.90;;;;;;6173911;23;20163;-86
2020/12/13 03:19:15;;;;;;;5.93;5.33;;;6.20;99.90;;;;;;6197054;23;20194;-86
2020/12/13 03:21:44;;;;;;;6.63;5.93;;;6.20;99.90;;;;;;6179676;23;20780;-85
2020/12/13 03:24:12;;;;;;;6.73;6.00;;;6.20;99.90;;;;;;6154593;23;20221;-85
2020/12/13 03:26:42;;;;;;;6.33;5.73;;;6.30;99.90;;;;;;6205783;23;20819;-85
2020/12/13 03:31:47;;;;;;;6.47;5.87;;;6.20;99.90;;;;;;6207642;23;20390;-84
2020/12/13 03:34:16;;;;;;;8.47;6.00;;;6.20;99.90;;;;;;6177999;23;20380;-84
2020/12/13 03:37:08;;;;;;;6.10;5.50;;;6.20;99.90;;;;;;6178848;23;20539;-86
2020/12/13 03:39:33;;;;;;;7.47;5.73;;;6.20;99.90;;;;;;6205297;23;20380;-85
2020/12/13 03:41:59;;;;;;;6.93;6.23;;;6.20;99.90;;;;;;6206552;23;20834;-85
2020/12/13 03:44:25;;;;;;;8.00;6.27;;;6.30;99.90;;;;;;6178548;23;20315;-86
2020/12/13 03:46:50;;;;;;;5.93;5.30;;;6.30;99.90;;;;;;6205467;23;20145;-86
2020/12/13 03:49:16;;;;;;;6.40;5.57;;;6.20;99.90;;;;;;6205125;23;20551;-85
2020/12/13 03:51:42;;;;;;;6.47;5.77;;;6.20;99.90;;;;;;6205059;23;20228;-85
2020/12/13 03:54:07;;;;;;;7.30;6.43;;;6.20;99.90;;;;;;6203279;23;20184;-85
2020/12/13 03:56:33;;;;;;;7.33;6.60;;;6.20;99.90;;;;;;6173148;23;20675;-86
2020/12/13 03:58:59;;;;;;;7.00;6.40;;;6.20;99.90;;;;;;6205374;23;20595;-86
2020/12/13 04:01:24;;;;;;;6.13;5.53;;;6.20;99.90;;;;;;6205345;23;20145;-85
2020/12/13 04:03:50;;;;;;;6.50;5.90;;;6.30;99.90;;;;;;6178301;23;20521;-86
2020/12/13 04:06:16;;;;;;;7.57;6.87;;;6.20;99.90;;;;;;6203902;23;20181;-85
2020/12/13 04:08:41;;;;;;;6.57;5.97;;;6.20;99.90;;;;;;6202231;23;20245;-85
2020/12/13 04:11:07;;;;;;;7.77;6.10;;;6.20;99.90;;;;;;6178224;23;20632;-85
2020/12/13 04:13:33;;;;;;;6.60;5.90;;;6.20;99.90;;;;;;6205500;23;20230;-85
2020/12/13 04:15:59;;;;;;;6.47;5.73;;;6.20;99.90;;;;;;6206220;23;20182;-86
2020/12/13 04:18:24;;;;;;;6.97;6.10;;;6.20;99.90;;;;;;6204830;23;20749;-85
2020/12/13 04:20:50;;;;;;;6.60;5.73;;;6.10;99.90;;;;;;6205377;23;20269;-85
2020/12/13 04:23:15;;;;;;;6.83;6.17;;;6.10;99.90;;;;;;6205415;23;20152;-86
2020/12/13 04:25:41;;;;;;;6.70;6.10;;;6.10;99.90;;;;;;6205248;23;20315;-85
2020/12/13 04:28:08;;;;;;;6.43;5.70;;;6.10;99.90;;;;;;6203058;23;20162;-85
2020/12/13 04:30:33;;;;;;;6.20;5.60;;;6.20;99.90;;;;;;6204631;23;20482;-85
2020/12/13 04:32:59;;;;;;;6.30;5.70;;;6.20;99.90;;;;;;6204483;23;20832;-85
2020/12/13 04:35:25;;;;;;;5.60;4.93;;;6.20;99.90;;;;;;6177323;23;20239;-84
2020/12/13 04:37:50;;;;;;;5.80;4.93;;;6.20;99.90;;;;;;6201653;23;20188;-85
2020/12/13 04:40:16;;;;;;;6.47;5.87;;;6.20;99.90;;;;;;6203320;23;20147;-84
2020/12/13 04:42:42;;;;;;;5.60;5.10;;;6.30;99.90;;;;;;6204572;23;20154;-85
2020/12/13 04:45:09;;;;;;;5.77;5.20;;;6.30;99.90;;;;;;6203912;23;20478;-85
2020/12/13 04:47:48;;;;;;;6.60;5.10;;;6.30;99.90;;;;;;6205254;23;20379;-84
2020/12/13 04:50:19;;;;;;;5.73;5.20;;;6.30;99.90;;;;;;6204256;23;20369;-84
2020/12/13 04:52:46;;;;;;;5.40;4.90;;;6.40;99.90;;;;;;6177692;23;20487;-84
2020/12/13 04:55:12;;;;;;;4.77;4.30;;;6.40;99.90;;;;;;6178640;23;20885;-84
2020/12/13 04:57:38;;;;;;;5.63;5.13;;;6.40;99.90;;;;;;6178431;23;20737;-84
2020/12/13 05:00:04;;;;;;;4.90;4.27;;;6.40;99.90;;;;;;6203788;23;20426;-84
2020/12/13 05:02:29;;;;;;;4.77;4.37;;;6.40;99.90;;;;;;6204958;23;20478;-85
2020/12/13 05:04:56;;;;;;;5.93;4.80;;;6.40;99.90;;;;;;6205208;23;20142;-85
2020/12/13 05:07:22;;;;;;;4.87;4.37;;;6.40;99.90;;;;;;6204762;23;20234;-84
2020/12/13 05:09:51;;;;;;;5.60;4.80;;;6.40;99.90;;;;;;6175703;23;20733;-85
2020/12/13 05:12:22;;;;;;;4.50;4.10;;;6.40;99.90;;;;;;6204108;23;20369;-85
2020/12/13 05:14:48;;;;;;;4.30;3.90;;;6.40;99.90;;;;;;6204607;23;20760;-85
2020/12/13 05:17:14;;;;;;;4.87;4.40;;;6.40;99.90;;;;;;6205424;23;20431;-86
2020/12/13 05:19:42;;;;;;;5.60;4.83;;;6.40;99.90;;;;;;6204277;23;20147;-86
2020/12/13 05:22:08;;;;;;;4.70;4.30;;;6.40;99.90;;;;;;6172047;23;20389;-85
2020/12/13 05:24:35;;;;;;;4.43;4.00;;;6.40;99.90;;;;;;6204976;23;20469;-85
2020/12/13 05:27:05;;;;;;;4.00;3.60;;;6.40;99.90;;;;;;6204649;23;20400;-85
2020/12/13 05:29:33;;;;;;;4.70;4.20;;;6.40;99.90;;;;;;6203561;23;20396;-85
2020/12/13 05:32:10;;;;;;;4.77;3.93;;;6.40;99.90;;;;;;6204859;23;20367;-86
2020/12/13 05:34:39;;;;;;;4.70;4.30;;;6.40;99.90;;;;;;6204026;23;20371;-85
2020/12/13 05:37:07;;;;;;;6.93;4.20;;;6.30;99.90;;;;;;6203945;23;20436;-85
2020/12/13 05:39:35;;;;;;;3.90;3.50;;;6.30;99.90;;;;;;6204220;23;21010;-85
2020/12/13 05:42:02;;;;;;;3.97;3.27;;;6.30;99.90;;;;;;6204633;23;20819;-84
2020/12/13 05:45:05;;;;;;;4.07;3.63;;;6.40;99.90;;;;;;6204635;23;20372;-86
2020/12/13 05:48:04;;;;;;;4.10;3.70;;;6.40;99.90;;;;;;6204287;23;20357;-85
2020/12/13 05:53:04;;;;;;;3.90;3.60;;;6.30;99.90;;;;;;6215009;23;20372;-85
2020/12/13 05:55:32;;;;;;;4.50;4.20;;;6.40;99.90;;;;;;6203621;23;20733;-86
2020/12/13 05:58:00;;;;;;;3.60;3.30;;;6.40;99.90;;;;;;6177844;23;20390;-85
2020/12/13 06:00:26;;;;;;;3.50;3.23;;;6.40;99.90;;;;;;6204394;23;20388;-85
2020/12/13 06:02:55;;;;;;;3.17;2.87;;;6.40;99.90;;;;;;6174952;23;21002;-86
2020/12/13 06:05:23;;;;;;;4.07;3.23;;;6.40;99.90;;;;;;6202843;23;20414;-85
2020/12/13 06:07:50;;;;;;;3.30;3.00;;;6.30;99.90;;;;;;6177157;23;20515;-86
2020/12/13 06:10:24;;;;;;;3.97;3.63;;;6.30;99.90;;;;;;6204849;23;20381;-85
2020/12/13 06:13:00;;;;;;;3.60;3.30;;;6.40;99.90;;;;;;6202859;23;20500;-84
2020/12/13 06:15:32;;;;;;;3.67;3.37;;;6.40;99.90;;;;;;6177669;23;20902;-84
2020/12/13 06:17:59;;;;;;;3.30;3.00;;;6.40;99.90;;;;;;6203730;23;20393;-85
2020/12/13 06:20:26;;;;;;;3.20;2.90;;;6.40;99.90;;;;;;6203880;23;20424;-85
2020/12/13 06:22:53;;;;;;;3.10;2.87;;;6.40;99.90;;;;;;6203616;23;20395;-85
2020/12/13 06:25:20;;;;;;;3.30;3.00;;;6.40;99.90;;;;;;6204469;23;20381;-85
2020/12/13 06:27:51;;;;;;;2.80;2.60;;;6.30;99.90;;;;;;6203706;23;20363;-84
2020/12/13 06:30:18;;;;;;;3.03;2.83;;;6.30;99.90;;;;;;6202855;23;20403;-85
2020/12/13 06:32:46;;;;;;;3.20;3.00;;;6.30;99.90;;;;;;6177012;23;20686;-84
2020/12/13 06:35:13;;;;;;;3.10;2.90;;;6.40;99.90;;;;;;6203981;23;20373;-86
2020/12/13 06:37:40;;;;;;;3.47;3.17;;;6.40;99.90;;;;;;6204234;23;20431;-86
2020/12/13 06:40:08;;;;;;;3.30;3.00;;;6.40;99.90;;;;;;6203282;23;20859;-86
2020/12/13 06:42:40;;;;;;;2.97;2.60;;;6.40;99.90;;;;;;6204565;23;20378;-86
2020/12/13 06:45:08;;;;;;;2.77;2.57;;;6.70;99.90;;;;;;6203914;23;20369;-84
2020/12/13 06:47:39;;;;;;;2.77;2.53;;;7.50;99.90;;;;;;6172289;23;20382;-84
2020/12/13 06:50:22;;;;;;;3.33;3.13;;;7.30;99.90;;;;;;6204197;23;20373;-88
2020/12/13 06:53:20;;;;;;;3.20;2.90;;;7.00;99.90;;;;;;6176680;23;20392;-87
2020/12/13 06:56:17;;;;;;;3.00;2.70;;;6.70;99.90;;;;;;6188668;23;20909;-87
2020/12/13 06:58:59;;;;;;;3.77;3.47;;;6.50;99.90;;;;;;6202028;23;20476;-88
2020/12/13 07:09:19;;;;;;;6.10;4.43;;;6.30;99.90;;;;;;6233699;22;20467;-87
2020/12/13 07:11:52;;;;;;;5.87;4.27;;;6.30;99.90;;;;;;6203935;23;20399;-85
2020/12/13 07:14:48;;;;;;;5.97;3.93;;;6.30;99.90;;;;;;6229412;23;20546;-86
2020/12/13 07:18:24;;;;;;;3.97;3.30;;;6.30;99.90;;;;;;6206533;23;20470;-86
2020/12/13 07:20:55;;;;;;;3.10;2.90;;;6.30;99.90;;;;;;6033569;23;20393;-87
2020/12/13 07:23:21;;;;;;;2.80;2.60;;;6.40;99.90;;;;;;6092931;23;20399;-89
2020/12/13 07:25:46;;;;;;;3.20;3.00;;;6.40;99.90;;;;;;6233990;23;20771;-88
2020/12/13 07:28:12;;;;;;;3.10;2.80;;;6.40;99.90;;;;;;6205972;23;20170;-86
2020/12/13 07:30:47;;;;;;;3.00;2.80;;;6.40;99.90;;;;;;6230313;23;20213;-87
2020/12/13 07:33:13;;;;;;;3.13;2.87;;;6.40;99.90;;;;;;6233811;23;20313;-86
2020/12/13 07:35:41;;;;;;;3.00;2.80;;;6.40;99.90;;;;;;6211885;23;20888;-86
2020/12/13 07:38:08;;;;;;;3.30;3.07;;;6.50;99.90;;;;;;6239381;23;20146;-83
2020/12/13 07:40:33;;;;;;;3.33;2.70;;;6.40;99.90;;;;;;6213276;23;20792;-86
2020/12/13 07:43:05;;;;;;;2.97;2.67;;;6.40;99.90;;;;;;6240718;23;20370;-84
2020/12/13 07:45:30;;;;;;;2.97;2.77;;;6.40;99.90;;;;;;6211966;23;20153;-85
2020/12/13 07:48:03;;;;;;;3.30;3.00;;;6.40;99.90;;;;;;6241072;23;20412;-85
2020/12/13 07:53:25;;;;;;;4.87;4.43;;;6.40;99.90;;;;;;6253615;23;20373;-87
2020/12/13 07:55:50;;;;;;;4.50;4.10;;;6.40;99.90;;;;;;6216953;23;20384;-86
2020/12/13 07:58:25;;;;;;;3.40;3.10;;;6.40;99.90;;;;;;6235767;23;20463;-87
2020/12/13 08:00:53;;;;;;;7.30;3.30;;;6.40;99.90;;;;;;6205757;23;20698;-87
2020/12/13 08:03:19;;;;;;;2.80;2.60;;;6.40;99.90;;;;;;6235987;23;20688;-88
2020/12/13 08:06:32;;;;;;;3.77;3.43;;;6.50;99.90;;;;;;6236346;23;20677;-89
2020/12/13 08:29:09;;;;;;;8.53;6.30;;;6.70;99.90;;;;;;6173748;22;20457;-87
2020/12/13 08:35:57;;;;;;;;;;;;;;;;;;;;;
2020/12/13 08:53:09;;;;;;;;;;;;;;;;;;;;;
2020/12/13 08:55:40;;;;;;;5.33;4.43;;;6.80;99.90;;;;;;6171701;23;20391;-87
2020/12/13 08:58:08;;;;;;;5.47;4.00;;;6.90;99.90;;;;;;6199034;23;20749;-87
2020/12/13 09:00:49;;;;;;;4.07;3.67;;;7.00;99.90;;;;;;6208362;23;20425;-87
2020/12/13 09:03:42;;;;;;;5.67;4.10;;;7.00;99.90;;;;;;6233732;23;20409;-87
2020/12/13 09:06:48;;;;;;;5.53;4.40;;;7.10;99.90;;;;;;6208370;23;20447;-87
2020/12/13 09:12:40;;;;;;;5.70;5.00;;;7.20;99.90;;;;;;6235270;23;20375;-88
2020/12/13 09:15:36;;;;;;;5.50;4.63;;;7.20;99.90;;;;;;6235164;23;20678;-88
2020/12/13 09:18:09;;;;;;;5.17;4.67;;;7.10;99.90;;;;;;6236019;23;20390;-88
2020/12/13 09:20:59;;;;;;;6.20;5.40;;;7.20;99.90;;;;;;6235438;23;20366;-88
2020/12/13 09:23:59;;;;;;;6.00;5.50;;;7.20;99.90;;;;;;6152993;23;20534;-88
2020/12/13 09:26:57;;;;;;;6.37;5.77;;;7.20;99.90;;;;;;6171146;23;20493;-87
2020/12/13 09:29:25;;;;;;;4.90;4.50;;;7.10;99.90;;;;;;6145625;23;20422;-87
2020/12/13 09:31:51;;;;;;;5.27;4.80;;;7.10;99.90;;;;;;6172391;23;20387;-87
2020/12/13 09:34:31;;;;;;;5.40;5.00;;;7.20;99.90;;;;;;6203721;23;20394;-88
2020/12/13 09:37:16;;;;;;;5.43;5.03;;;7.20;99.90;;;;;;6201482;23;20302;-87
2020/12/13 09:39:42;;;;;;;7.50;5.77;;;7.20;99.90;;;;;;6201552;23;20767;-86
2020/12/13 09:42:09;;;;;;;6.40;5.90;;;7.30;99.90;;;;;;6205405;23;20383;-86
2020/12/13 09:44:34;;;;;;;8.17;7.30;;;7.40;99.90;;;;;;6204215;23;20703;-86
2020/12/13 09:47:01;;;;;;;7.83;7.07;;;7.50;99.90;;;;;;6205886;23;20462;-86
2020/12/13 09:49:28;;;;;;;6.40;5.80;;;7.60;99.90;;;;;;6204949;23;20158;-86
2020/12/13 09:51:59;;;;;;;7.57;6.87;;;7.70;99.90;;;;;;6202789;23;20414;-86
2020/12/13 09:54:25;;;;;;;5.50;5.00;;;7.80;99.90;;;;;;6204775;23;20706;-85
2020/12/13 09:56:52;;;;;;;4.87;4.37;;;7.90;99.90;;;;;;6204505;23;20434;-86
2020/12/13 09:59:18;;;;;;;4.80;4.40;;;7.90;99.90;;;;;;6203717;23;20227;-86
2020/12/13 10:01:45;;;;;;;4.17;3.67;;;8.00;99.90;;;;;;6204350;23;20397;-87
2020/12/13 10:04:11;;;;;;;5.60;4.70;;;8.00;99.90;;;;;;6204125;23;20387;-86
2020/12/13 10:09:12;;;;;;;5.47;5.07;;;8.20;99.90;;;;;;6213598;23;20367;-87
2020/12/13 10:11:40;;;;;;;4.33;3.93;;;8.30;99.90;;;;;;6204966;23;20378;-89
2020/12/13 10:14:08;;;;;;;3.43;3.10;;;8.50;99.90;;;;;;6202521;23;20392;-87
2020/12/13 10:16:34;;;;;;;4.63;3.80;;;8.60;99.90;;;;;;6205695;23;20434;-87
2020/12/13 10:19:01;;;;;;;4.80;4.30;;;8.80;99.90;;;;;;6202401;23;20714;-88
2020/12/13 10:21:28;;;;;;;4.20;3.80;;;8.90;99.90;;;;;;6204474;23;20391;-90
2020/12/13 10:23:55;;;;;;;4.70;4.30;;;9.10;99.90;;;;;;6204856;23;20404;-89
2020/12/13 10:26:39;;;;;;;5.63;4.33;;;9.20;99.90;;;;;;6204956;23;20393;-89
2020/12/13 10:29:06;;;;;;;3.90;3.60;;;9.10;99.90;;;;;;6205831;23;20377;-88
2020/12/13 10:31:36;;;;;;;3.80;3.50;;;9.00;99.90;;;;;;6207745;23;20450;-89
2020/12/13 10:34:05;;;;;;;4.33;3.90;;;8.90;99.90;;;;;;6234076;23;20426;-89
2020/12/13 10:36:33;;;;;;;3.47;3.27;;;8.80;99.90;;;;;;6206294;23;21302;-89
2020/12/13 10:38:59;;;;;;;4.27;3.87;;;9.00;99.90;;;;;;6207565;23;20430;-89
2020/12/13 10:41:27;;;;;;;5.63;3.97;;;9.00;99.90;;;;;;6233966;23;20376;-89
2020/12/13 10:43:52;;;;;;;5.00;4.60;;;9.20;99.90;;;;;;6233999;23;20381;-88
2020/12/13 10:46:18;;;;;;;4.00;3.70;;;9.40;99.90;;;;;;6235133;23;20393;-89
2020/12/13 10:48:44;;;;;;;4.00;3.70;;;9.60;99.90;;;;;;6235803;23;20154;-89
2020/12/13 10:51:10;;;;;;;3.90;3.47;;;11.00;99.90;;;;;;6232944;23;20201;-88
2020/12/13 10:53:40;;;;;;;2.67;2.47;;;13.10;99.90;;;;;;6208566;23;20393;-91
2020/12/13 10:56:07;;;;;;;2.90;2.27;;;12.20;99.00;;;;;;6207724;23;20742;-91
2020/12/13 10:58:49;;;;;;;1.60;1.50;;;10.80;99.90;;;;;;6203309;23;20436;-89
2020/12/13 11:01:15;;;;;;;1.77;1.60;;;10.30;99.90;;;;;;6208320;23;20413;-89
2020/12/13 11:03:43;;;;;;;1.30;1.20;;;9.90;99.90;;;;;;6233536;23;20814;-85
2020/12/13 11:06:10;;;;;;;1.80;1.57;;;9.80;99.90;;;;;;6233931;23;20377;-88
2020/12/13 11:08:36;;;;;;;2.37;2.20;;;9.60;99.90;;;;;;6207440;23;20397;-87
2020/12/13 11:11:03;;;;;;;2.50;2.00;;;9.10;99.90;;;;;;6235437;23;20380;-88
2020/12/13 11:13:42;;;;;;;1.43;1.33;;;8.90;99.90;;;;;;6235040;23;20386;-86
2020/12/13 11:16:08;;;;;;;1.60;1.50;;;8.70;99.90;;;;;;6235775;23;20419;-87
2020/12/13 11:18:34;;;;;;;1.73;1.40;;;8.50;99.90;;;;;;6236869;23;20373;-83
2020/12/13 11:21:00;;;;;;;2.00;1.63;;;8.50;99.90;;;;;;6235842;23;20374;-85
2020/12/13 11:23:26;;;;;;;3.80;2.60;;;8.40;99.90;;;;;;6209172;23;20464;-88
2020/12/13 11:25:52;;;;;;;3.67;3.27;;;8.50;99.90;;;;;;6207960;23;20155;-90
2020/12/13 11:28:18;;;;;;;6.47;4.03;;;8.50;99.90;;;;;;6209397;23;20474;-88
2020/12/13 11:31:02;;;;;;;2.27;2.07;;;8.50;99.90;;;;;;6236971;23;20787;-89
2020/12/13 11:33:28;;;;;;;4.73;3.27;;;8.40;99.90;;;;;;6208285;23;20699;-89
2020/12/13 11:36:03;;;;;;;4.60;4.20;;;8.30;99.90;;;;;;6209809;23;20395;-88
2020/12/13 11:38:28;;;;;;;3.00;2.70;;;8.40;99.90;;;;;;6235639;23;20161;-86
2020/12/13 11:41:55;;;;;;;3.60;3.30;;;8.30;99.90;;;;;;6236633;23;20419;-92
2020/12/13 12:18:13;;;;;;;3.57;3.07;;;8.20;99.90;;;;;;6211385;22;20425;-87
2020/12/13 12:20:54;;;;;;;3.33;2.80;;;8.30;99.90;;;;;;6184585;23;20417;-89
2020/12/13 12:23:35;;;;;;;3.67;3.30;;;8.50;99.90;;;;;;6209338;23;20417;-89
2020/12/13 12:26:17;;;;;;;4.00;3.60;;;8.50;99.90;;;;;;6211770;23;20956;-90
2020/12/13 12:29:04;;;;;;;3.23;2.83;;;8.60;99.90;;;;;;6211660;23;20493;-90
2020/12/13 12:31:46;;;;;;;3.80;3.50;;;8.60;99.90;;;;;;6212197;23;20394;-91
2020/12/13 12:34:39;;;;;;;3.67;3.23;;;8.60;99.90;;;;;;6185050;23;20508;-90
2020/12/13 12:37:40;;;;;;;2.60;2.40;;;8.50;99.90;;;;;;6201109;23;20465;-90
2020/12/13 12:40:25;;;;;;;2.90;2.23;;;8.50;99.90;;;;;;6206840;23;20392;-87
2020/12/13 14:49:50;;;;;;;7.03;5.70;;;7.90;99.90;;;;;;6237749;23;20442;-91
2020/12/13 14:52:16;;;;;;;4.67;4.27;;;7.90;99.90;;;;;;6156551;23;20478;-91
2020/12/13 14:54:42;;;;;;;6.97;5.77;;;7.90;99.90;;;;;;6178165;23;20394;-89
2020/12/13 14:57:07;;;;;;;4.90;4.50;;;7.90;99.90;;;;;;6201953;23;20893;-91
2020/12/13 14:59:34;;;;;;;5.40;4.60;;;7.80;99.90;;;;;;6177424;23;20154;-92
2020/12/13 15:01:59;;;;;;;5.13;4.63;;;7.80;99.90;;;;;;6205571;23;20580;-90
2020/12/13 15:04:44;;;;;;;5.60;4.57;;;7.70;99.90;;;;;;6204535;23;20363;-89
2020/12/13 15:07:10;;;;;;;4.37;3.97;;;7.70;99.90;;;;;;6178803;23;20212;-91
2020/12/13 15:09:45;;;;;;;4.70;4.30;;;7.60;99.90;;;;;;6204728;23;20375;-92
2020/12/13 15:12:10;;;;;;;4.03;3.73;;;7.60;99.90;;;;;;6176100;23;20440;-92
2020/12/13 15:14:49;;;;;;;4.60;4.20;;;7.60;99.90;;;;;;6176756;23;20392;-92
2020/12/13 15:17:34;;;;;;;6.00;5.50;;;7.60;99.90;;;;;;6202418;23;20144;-90
2020/12/13 15:20:00;;;;;;;7.63;6.90;;;7.50;99.90;;;;;;6175896;23;20388;-91
2020/12/13 15:22:29;;;;;;;16.40;15.00;;;7.50;99.90;;;;;;6176025;23;20393;-89
2020/12/13 15:24:55;;;;;;;7.77;7.17;;;7.50;99.90;;;;;;6176393;23;20467;-90
2020/12/13 15:27:45;;;;;;;11.23;10.33;;;7.50;99.90;;;;;;6171462;23;21011;-88
2020/12/13 15:30:11;;;;;;;17.27;15.37;;;7.50;99.90;;;;;;6173692;23;20155;-90
2020/12/13 15:32:37;;;;;;;9.73;8.83;;;7.50;99.90;;;;;;6177918;23;20426;-90
2020/12/13 15:35:03;;;;;;;8.40;7.80;;;7.50;99.90;;;;;;6176396;23;20151;-88
2020/12/13 15:37:29;;;;;;;8.70;7.90;;;7.50;99.90;;;;;;6176972;23;20214;-90
2020/12/13 15:40:08;;;;;;;11.67;10.77;;;7.50;99.90;;;;;;6203149;23;20363;-93
2020/12/13 15:42:37;;;;;;;10.70;9.83;;;7.50;99.90;;;;;;6177927;23;20168;-91
2020/12/13 15:45:07;;;;;;;9.60;8.80;;;7.40;99.90;;;;;;6178196;23;20367;-92
2020/12/13 15:47:48;;;;;;;16.13;15.00;;;7.50;99.90;;;;;;6176816;23;20432;-92
2020/12/13 15:50:51;;;;;;;23.57;22.00;;;7.50;99.90;;;;;;6189776;23;20386;-93
2020/12/13 15:53:51;;;;;;;10.47;9.77;;;7.40;99.90;;;;;;6203440;23;20408;-95
2020/12/13 15:56:57;;;;;;;3.77;3.47;;;7.40;99.90;;;;;;6208457;23;20500;-93
2020/12/13 16:01:55;;;;;;;8.77;8.00;;;7.40;99.90;;;;;;6247057;23;20376;-88
2020/12/13 16:04:33;;;;;;;10.67;9.60;;;7.40;99.90;;;;;;6236926;23;20473;-92
2020/12/13 16:07:36;;;;;;;10.57;9.67;;;7.40;99.90;;;;;;6212348;23;20524;-93
2020/12/13 16:10:25;;;;;;;11.50;8.00;;;7.30;99.90;;;;;;6209048;23;20394;-89
2020/12/13 16:13:15;;;;;;;;;;;;;;;;;;;;;
2020/12/13 19:57:05;;;;;;;7.90;7.20;;;4.40;99.90;;;;;;6238831;22;20452;-94
2020/12/13 19:59:32;;;;;;;7.57;6.47;;;4.40;99.90;;;;;;6183410;23;20398;-91
2020/12/13 20:01:58;;;;;;;6.83;6.13;;;4.30;99.90;;;;;;6208798;23;20391;-91
2020/12/13 20:04:27;;;;;;;8.87;7.20;;;4.30;99.90;;;;;;6184822;23;20386;-91
2020/12/13 20:06:57;;;;;;;11.53;9.30;;;4.30;99.90;;;;;;6184046;23;20764;-92
2020/12/13 20:09:24;;;;;;;8.90;7.50;;;4.40;99.90;;;;;;6209054;23;20559;-93
2020/12/13 20:11:59;;;;;;;9.20;7.00;;;4.50;99.90;;;;;;6183820;23;20401;-92
2020/12/13 20:17:45;;;;;;;7.30;5.70;;;4.40;99.90;;;;;;6214215;23;20373;-92
2020/12/13 20:21:30;;;;;;;8.83;6.63;;;4.40;99.90;;;;;;6213195;23;20447;-92
2020/12/13 20:32:53;;;;;;;6.00;5.40;;;4.60;99.90;;;;;;6180212;23;20389;-93
